sensor_id;sensor_type;location;lat;lon;timestamp;pressure;altitude;pressure_sealevel;temperature;humidity
11712;BME280;5912;51.034;6.984;2023-07-29T00:00:20;56260.19;;;-142.13;77.88
11712;BME280;5912;51.034;6.984;2023-07-29T00:02:46;56264.19;;;-142.13;77.92
11712;BME280;5912;51.034;6.984;2023-07-29T00:05:11;56272.19;;;-142.13;77.68
11712;BME280;5912;51.034;6.984;2023-07-29T00:07:37;56282.22;;;-142.13;77.85
11712;BME280;5912;51.034;6.984;2023-07-29T00:10:03;56268.19;;;-142.13;77.74
11712;BME280;5912;51.034;6.984;2023-07-29T00:12:28;56240.16;;;-142.13;77.90
11712;BME280;5912;51.034;6.984;2023-07-29T00:14:54;56258.16;;;-142.13;77.69
11712;BME280;5912;51.034;6.984;2023-07-29T00:17:20;56248.16;;;-142.13;77.79
11712;BME280;5912;51.034;6.984;2023-07-29T00:19:46;56260.19;;;-142.13;77.81
11712;BME280;5912;51.034;6.984;2023-07-29T00:22:11;56270.19;;;-142.13;78.14
11712;BME280;5912;51.034;6.984;2023-07-29T00:24:36;56268.19;;;-142.13;78.13
11712;BME280;5912;51.034;6.984;2023-07-29T00:27:02;56278.19;;;-142.13;78.18
11712;BME280;5912;51.034;6.984;2023-07-29T00:29:27;56278.19;;;-142.13;78.32
11712;BME280;5912;51.034;6.984;2023-07-29T00:31:52;56280.22;;;-142.13;78.10
11712;BME280;5912;51.034;6.984;2023-07-29T00:34:18;56244.16;;;-142.13;78.27
11712;BME280;5912;51.034;6.984;2023-07-29T00:36:45;56274.19;;;-142.13;78.33
11712;BME280;5912;51.034;6.984;2023-07-29T00:39:10;56276.19;;;-142.13;78.08
11712;BME280;5912;51.034;6.984;2023-07-29T00:41:36;56274.19;;;-142.13;78.31
11712;BME280;5912;51.034;6.984;2023-07-29T00:44:01;56284.22;;;-142.13;78.46
11712;BME280;5912;51.034;6.984;2023-07-29T00:46:28;56276.19;;;-142.13;78.46
11712;BME280;5912;51.034;6.984;2023-07-29T00:48:53;56268.19;;;-142.13;78.73
11712;BME280;5912;51.034;6.984;2023-07-29T00:51:19;56294.22;;;-142.13;78.73
11712;BME280;5912;51.034;6.984;2023-07-29T00:53:44;56284.22;;;-142.13;78.81
11712;BME280;5912;51.034;6.984;2023-07-29T00:56:10;56264.19;;;-142.13;78.81
11712;BME280;5912;51.034;6.984;2023-07-29T00:58:35;56288.22;;;-142.13;78.83
11712;BME280;5912;51.034;6.984;2023-07-29T01:01:01;56280.22;;;-142.13;79.01
11712;BME280;5912;51.034;6.984;2023-07-29T01:03:26;56304.25;;;-142.13;78.97
11712;BME280;5912;51.034;6.984;2023-07-29T01:05:59;56276.19;;;-142.13;78.96
11712;BME280;5912;51.034;6.984;2023-07-29T01:08:42;56266.19;;;-142.13;79.09
11712;BME280;5912;51.034;6.984;2023-07-29T01:11:20;56272.19;;;-142.13;79.20
11712;BME280;5912;51.034;6.984;2023-07-29T01:14:10;56272.19;;;-142.13;79.02
11712;BME280;5912;51.034;6.984;2023-07-29T01:16:42;56264.19;;;-142.13;79.16
11712;BME280;5912;51.034;6.984;2023-07-29T01:20:01;56284.22;;;-142.13;79.35
11712;BME280;5912;51.034;6.984;2023-07-29T01:22:07;56284.22;;;-142.13;79.64
11712;BME280;5912;51.034;6.984;2023-07-29T01:24:33;56270.19;;;-142.13;80.13
11712;BME280;5912;51.034;6.984;2023-07-29T01:26:58;56260.19;;;-142.13;80.05
11712;BME280;5912;51.034;6.984;2023-07-29T01:29:23;56246.16;;;-142.13;80.51
11712;BME280;5912;51.034;6.984;2023-07-29T01:31:54;56292.22;;;-142.13;80.35
11712;BME280;5912;51.034;6.984;2023-07-29T01:35:03;56314.25;;;-142.13;80.56
11712;BME280;5912;51.034;6.984;2023-07-29T01:37:33;56280.22;;;-142.13;80.70
11712;BME280;5912;51.034;6.984;2023-07-29T01:40:00;56280.22;;;-142.13;80.59
11712;BME280;5912;51.034;6.984;2023-07-29T01:42:25;56306.25;;;-142.13;80.63
11712;BME280;5912;51.034;6.984;2023-07-29T01:44:52;56286.22;;;-142.13;80.46
11712;BME280;5912;51.034;6.984;2023-07-29T01:47:17;56286.22;;;-142.13;80.89
11712;BME280;5912;51.034;6.984;2023-07-29T01:49:43;56264.19;;;-142.13;80.97
11712;BME280;5912;51.034;6.984;2023-07-29T01:52:08;56308.25;;;-142.13;80.81
11712;BME280;5912;51.034;6.984;2023-07-29T01:54:33;56324.28;;;-142.13;81.17
11712;BME280;5912;51.034;6.984;2023-07-29T01:56:59;56268.19;;;-142.13;81.06
11712;BME280;5912;51.034;6.984;2023-07-29T01:59:24;56290.22;;;-142.13;80.97
11712;BME280;5912;51.034;6.984;2023-07-29T02:01:49;56286.22;;;-142.13;81.25
11712;BME280;5912;51.034;6.984;2023-07-29T02:04:14;56308.25;;;-142.13;81.09
11712;BME280;5912;51.034;6.984;2023-07-29T02:06:40;56294.22;;;-142.13;81.03
11712;BME280;5912;51.034;6.984;2023-07-29T02:09:05;56272.19;;;-142.13;80.87
11712;BME280;5912;51.034;6.984;2023-07-29T02:11:30;56290.22;;;-142.13;81.05
11712;BME280;5912;51.034;6.984;2023-07-29T02:13:56;56286.22;;;-142.13;81.17
11712;BME280;5912;51.034;6.984;2023-07-29T02:16:22;56256.16;;;-142.13;81.29
11712;BME280;5912;51.034;6.984;2023-07-29T02:18:50;56300.25;;;-142.13;81.06
11712;BME280;5912;51.034;6.984;2023-07-29T02:21:16;56284.22;;;-142.13;81.20
11712;BME280;5912;51.034;6.984;2023-07-29T02:23:41;56300.25;;;-142.13;81.20
11712;BME280;5912;51.034;6.984;2023-07-29T02:26:07;56292.22;;;-142.13;81.29
11712;BME280;5912;51.034;6.984;2023-07-29T02:28:32;56280.22;;;-142.13;81.54
11712;BME280;5912;51.034;6.984;2023-07-29T02:31:14;56302.25;;;-142.13;81.62
11712;BME280;5912;51.034;6.984;2023-07-29T02:33:40;56296.22;;;-142.13;81.52
11712;BME280;5912;51.034;6.984;2023-07-29T02:36:06;56310.25;;;-142.13;81.50
11712;BME280;5912;51.034;6.984;2023-07-29T02:38:31;56300.25;;;-142.13;81.68
11712;BME280;5912;51.034;6.984;2023-07-29T02:40:56;56280.22;;;-142.13;81.68
11712;BME280;5912;51.034;6.984;2023-07-29T02:43:22;56300.25;;;-142.13;81.41
11712;BME280;5912;51.034;6.984;2023-07-29T02:45:47;56306.25;;;-142.13;81.78
11712;BME280;5912;51.034;6.984;2023-07-29T02:48:12;56276.19;;;-142.13;81.74
11712;BME280;5912;51.034;6.984;2023-07-29T02:50:37;56264.19;;;-142.13;81.71
11712;BME280;5912;51.034;6.984;2023-07-29T02:53:03;56292.22;;;-142.13;81.53
11712;BME280;5912;51.034;6.984;2023-07-29T02:55:28;56300.25;;;-142.13;81.96
11712;BME280;5912;51.034;6.984;2023-07-29T02:57:53;56282.22;;;-142.13;81.71
11712;BME280;5912;51.034;6.984;2023-07-29T03:00:18;56268.19;;;-142.13;81.94
11712;BME280;5912;51.034;6.984;2023-07-29T03:02:44;56286.22;;;-142.13;81.86
11712;BME280;5912;51.034;6.984;2023-07-29T03:05:09;56282.22;;;-142.13;81.94
11712;BME280;5912;51.034;6.984;2023-07-29T03:07:34;56288.22;;;-142.13;81.90
11712;BME280;5912;51.034;6.984;2023-07-29T03:10:00;56284.22;;;-142.13;82.06
11712;BME280;5912;51.034;6.984;2023-07-29T03:12:25;56292.22;;;-142.13;82.03
11712;BME280;5912;51.034;6.984;2023-07-29T03:14:51;56270.19;;;-142.13;82.04
11712;BME280;5912;51.034;6.984;2023-07-29T03:17:16;56274.19;;;-142.13;81.95
11712;BME280;5912;51.034;6.984;2023-07-29T03:19:42;56278.19;;;-142.13;82.10
11712;BME280;5912;51.034;6.984;2023-07-29T03:22:07;56284.22;;;-142.13;82.12
11712;BME280;5912;51.034;6.984;2023-07-29T03:24:32;56288.22;;;-142.13;82.12
11712;BME280;5912;51.034;6.984;2023-07-29T03:26:58;56420.44;;;-142.13;82.23
11712;BME280;5912;51.034;6.984;2023-07-29T03:29:23;56280.22;;;-142.13;82.12
11712;BME280;5912;51.034;6.984;2023-07-29T03:31:48;56288.22;;;-142.13;82.29
11712;BME280;5912;51.034;6.984;2023-07-29T03:34:13;56288.22;;;-142.13;82.24
11712;BME280;5912;51.034;6.984;2023-07-29T03:36:39;56286.22;;;-142.13;82.21
11712;BME280;5912;51.034;6.984;2023-07-29T03:39:04;56280.22;;;-142.13;82.20
11712;BME280;5912;51.034;6.984;2023-07-29T03:41:29;56282.22;;;-142.13;82.24
11712;BME280;5912;51.034;6.984;2023-07-29T03:43:55;56288.22;;;-142.13;82.38
11712;BME280;5912;51.034;6.984;2023-07-29T03:46:20;56288.22;;;-142.13;82.49
11712;BME280;5912;51.034;6.984;2023-07-29T03:48:47;56310.25;;;-142.13;82.62
11712;BME280;5912;51.034;6.984;2023-07-29T03:51:13;56304.25;;;-142.13;82.49
11712;BME280;5912;51.034;6.984;2023-07-29T03:53:38;56278.19;;;-142.13;82.49
11712;BME280;5912;51.034;6.984;2023-07-29T03:56:04;56292.22;;;-142.13;82.45
11712;BME280;5912;51.034;6.984;2023-07-29T03:58:29;56284.22;;;-142.13;82.47
11712;BME280;5912;51.034;6.984;2023-07-29T04:00:54;56280.22;;;-142.13;82.60
11712;BME280;5912;51.034;6.984;2023-07-29T04:03:20;56290.22;;;-142.13;82.47
11712;BME280;5912;51.034;6.984;2023-07-29T04:05:45;56292.22;;;-142.13;82.61
11712;BME280;5912;51.034;6.984;2023-07-29T04:08:10;56304.25;;;-142.13;82.72
11712;BME280;5912;51.034;6.984;2023-07-29T04:10:36;56286.22;;;-142.13;82.31
11712;BME280;5912;51.034;6.984;2023-07-29T04:13:15;56296.22;;;-142.13;82.44
11712;BME280;5912;51.034;6.984;2023-07-29T04:15:40;56284.22;;;-142.13;82.51
11712;BME280;5912;51.034;6.984;2023-07-29T04:18:05;56280.22;;;-142.13;82.26
11712;BME280;5912;51.034;6.984;2023-07-29T04:20:30;56300.25;;;-142.13;82.46
11712;BME280;5912;51.034;6.984;2023-07-29T04:22:56;56296.22;;;-142.13;82.36
11712;BME280;5912;51.034;6.984;2023-07-29T04:25:21;56296.22;;;-142.13;82.67
11712;BME280;5912;51.034;6.984;2023-07-29T04:27:47;56296.22;;;-142.13;82.40
11712;BME280;5912;51.034;6.984;2023-07-29T04:30:12;56294.22;;;-142.13;82.49
11712;BME280;5912;51.034;6.984;2023-07-29T04:32:37;56296.22;;;-142.13;82.38
11712;BME280;5912;51.034;6.984;2023-07-29T04:35:03;56312.25;;;-142.13;82.49
11712;BME280;5912;51.034;6.984;2023-07-29T04:37:28;56308.25;;;-142.13;82.25
11712;BME280;5912;51.034;6.984;2023-07-29T04:39:54;56280.22;;;-142.13;82.39
11712;BME280;5912;51.034;6.984;2023-07-29T04:42:19;56306.25;;;-142.13;82.31
11712;BME280;5912;51.034;6.984;2023-07-29T04:44:44;56294.22;;;-142.13;82.04
11712;BME280;5912;51.034;6.984;2023-07-29T04:47:10;56292.22;;;-142.13;82.10
11712;BME280;5912;51.034;6.984;2023-07-29T04:49:53;56298.22;;;-142.13;82.33
11712;BME280;5912;51.034;6.984;2023-07-29T04:52:19;56278.19;;;-142.13;82.11
11712;BME280;5912;51.034;6.984;2023-07-29T04:54:44;56320.28;;;-142.13;82.15
11712;BME280;5912;51.034;6.984;2023-07-29T04:57:10;56288.22;;;-142.13;82.23
11712;BME280;5912;51.034;6.984;2023-07-29T04:59:35;56302.25;;;-142.13;81.98
11712;BME280;5912;51.034;6.984;2023-07-29T05:02:00;56294.22;;;-142.13;81.73
11712;BME280;5912;51.034;6.984;2023-07-29T05:04:26;56292.22;;;-142.13;81.61
11712;BME280;5912;51.034;6.984;2023-07-29T05:06:51;56332.28;;;-142.13;81.52
11712;BME280;5912;51.034;6.984;2023-07-29T05:09:17;56264.19;;;-142.13;81.33
11712;BME280;5912;51.034;6.984;2023-07-29T05:11:43;56280.22;;;-142.13;81.38
11712;BME280;5912;51.034;6.984;2023-07-29T05:14:11;56276.19;;;-142.13;81.00
11712;BME280;5912;51.034;6.984;2023-07-29T05:16:36;56272.19;;;-142.13;81.04
11712;BME280;5912;51.034;6.984;2023-07-29T05:19:02;56278.19;;;-142.13;80.99
11712;BME280;5912;51.034;6.984;2023-07-29T05:21:27;56284.22;;;-142.13;81.13
11712;BME280;5912;51.034;6.984;2023-07-29T05:23:52;56302.25;;;-142.13;80.86
11712;BME280;5912;51.034;6.984;2023-07-29T05:26:18;56248.16;;;-142.13;80.71
11712;BME280;5912;51.034;6.984;2023-07-29T05:28:43;56272.19;;;-142.13;80.50
11712;BME280;5912;51.034;6.984;2023-07-29T05:31:09;56260.19;;;-142.13;80.08
11712;BME280;5912;51.034;6.984;2023-07-29T05:33:34;56266.19;;;-142.13;80.03
11712;BME280;5912;51.034;6.984;2023-07-29T05:36:01;56260.19;;;-142.13;79.86
11712;BME280;5912;51.034;6.984;2023-07-29T05:38:26;56280.22;;;-142.13;79.51
11712;BME280;5912;51.034;6.984;2023-07-29T05:40:52;56270.19;;;-142.13;79.06
11712;BME280;5912;51.034;6.984;2023-07-29T05:43:17;56262.19;;;-142.13;79.24
11712;BME280;5912;51.034;6.984;2023-07-29T05:45:42;56264.19;;;-142.13;78.71
11712;BME280;5912;51.034;6.984;2023-07-29T05:48:07;56256.16;;;-142.13;78.88
11712;BME280;5912;51.034;6.984;2023-07-29T05:50:33;56286.22;;;-142.13;78.60
11712;BME280;5912;51.034;6.984;2023-07-29T05:52:58;56288.22;;;-142.13;78.47
11712;BME280;5912;51.034;6.984;2023-07-29T05:55:23;56250.16;;;-142.13;78.53
11712;BME280;5912;51.034;6.984;2023-07-29T05:57:49;56248.16;;;-142.13;78.44
11712;BME280;5912;51.034;6.984;2023-07-29T06:00:14;56280.22;;;-142.13;78.46
11712;BME280;5912;51.034;6.984;2023-07-29T06:02:40;56262.19;;;-142.13;77.72
11712;BME280;5912;51.034;6.984;2023-07-29T06:05:06;56260.19;;;-142.13;77.44
11712;BME280;5912;51.034;6.984;2023-07-29T06:07:32;56262.19;;;-142.13;76.92
11712;BME280;5912;51.034;6.984;2023-07-29T06:09:59;56256.16;;;-142.13;76.02
11712;BME280;5912;51.034;6.984;2023-07-29T06:12:24;56246.16;;;-142.13;75.37
11712;BME280;5912;51.034;6.984;2023-07-29T06:14:49;56252.16;;;-142.13;74.49
11712;BME280;5912;51.034;6.984;2023-07-29T06:17:14;56252.16;;;-142.13;74.77
11712;BME280;5912;51.034;6.984;2023-07-29T06:19:40;56264.19;;;-142.13;74.34
11712;BME280;5912;51.034;6.984;2023-07-29T06:22:05;56252.16;;;-142.13;73.93
11712;BME280;5912;51.034;6.984;2023-07-29T06:24:31;56252.16;;;-142.13;73.29
11712;BME280;5912;51.034;6.984;2023-07-29T06:26:56;56264.19;;;-142.13;73.20
11712;BME280;5912;51.034;6.984;2023-07-29T06:29:21;56264.19;;;-142.13;72.93
11712;BME280;5912;51.034;6.984;2023-07-29T06:31:47;56242.16;;;-142.13;73.23
11712;BME280;5912;51.034;6.984;2023-07-29T06:34:12;56262.19;;;-142.13;73.57
11712;BME280;5912;51.034;6.984;2023-07-29T06:36:37;56258.16;;;-142.13;73.64
11712;BME280;5912;51.034;6.984;2023-07-29T06:39:03;56244.16;;;-142.13;73.49
11712;BME280;5912;51.034;6.984;2023-07-29T06:41:28;56232.13;;;-142.13;72.03
11712;BME280;5912;51.034;6.984;2023-07-29T06:43:53;56264.19;;;-142.13;72.52
11712;BME280;5912;51.034;6.984;2023-07-29T06:46:18;56222.13;;;-142.13;73.08
11712;BME280;5912;51.034;6.984;2023-07-29T06:48:44;56252.16;;;-142.13;72.87
11712;BME280;5912;51.034;6.984;2023-07-29T06:51:10;56252.16;;;-142.13;72.94
11712;BME280;5912;51.034;6.984;2023-07-29T06:53:35;56260.19;;;-142.13;73.33
11712;BME280;5912;51.034;6.984;2023-07-29T06:56:00;56254.16;;;-142.13;72.92
11712;BME280;5912;51.034;6.984;2023-07-29T06:58:26;56250.16;;;-142.13;73.08
11712;BME280;5912;51.034;6.984;2023-07-29T07:00:51;56242.16;;;-142.13;72.86
11712;BME280;5912;51.034;6.984;2023-07-29T07:03:16;56240.16;;;-142.13;73.00
11712;BME280;5912;51.034;6.984;2023-07-29T07:05:42;56258.16;;;-142.13;73.13
11712;BME280;5912;51.034;6.984;2023-07-29T07:08:07;56216.09;;;-142.13;72.27
11712;BME280;5912;51.034;6.984;2023-07-29T07:10:32;56204.09;;;-142.13;71.60
11712;BME280;5912;51.034;6.984;2023-07-29T07:12:59;56192.06;;;-142.13;70.11
11712;BME280;5912;51.034;6.984;2023-07-29T07:15:24;56172.03;;;-142.13;68.46
11712;BME280;5912;51.034;6.984;2023-07-29T07:17:51;56204.09;;;-142.13;67.18
11712;BME280;5912;51.034;6.984;2023-07-29T07:20:16;56176.03;;;-142.13;66.06
11712;BME280;5912;51.034;6.984;2023-07-29T07:22:41;56144.00;;;-142.13;65.10
11712;BME280;5912;51.034;6.984;2023-07-29T07:25:07;56135.97;;;-142.13;63.55
11712;BME280;5912;51.034;6.984;2023-07-29T07:27:33;56135.97;;;-142.13;61.41
11712;BME280;5912;51.034;6.984;2023-07-29T07:29:58;56121.97;;;-142.13;60.41
11712;BME280;5912;51.034;6.984;2023-07-29T07:32:23;56103.94;;;-142.13;59.41
11712;BME280;5912;51.034;6.984;2023-07-29T07:34:49;56210.09;;;-142.13;60.03
11712;BME280;5912;51.034;6.984;2023-07-29T07:37:14;56099.94;;;-142.13;60.59
11712;BME280;5912;51.034;6.984;2023-07-29T07:39:39;56085.91;;;-142.13;57.27
11712;BME280;5912;51.034;6.984;2023-07-29T07:42:05;56097.94;;;-142.13;56.54
11712;BME280;5912;51.034;6.984;2023-07-29T07:44:30;56103.94;;;-142.13;56.15
11712;BME280;5912;51.034;6.984;2023-07-29T07:46:56;56087.91;;;-142.13;55.57
11712;BME280;5912;51.034;6.984;2023-07-29T07:49:22;56091.91;;;-142.13;54.51
11712;BME280;5912;51.034;6.984;2023-07-29T07:51:47;56065.88;;;-142.13;52.82
11712;BME280;5912;51.034;6.984;2023-07-29T07:54:12;56085.91;;;-142.13;53.86
11712;BME280;5912;51.034;6.984;2023-07-29T07:56:38;56089.91;;;-142.13;54.22
11712;BME280;5912;51.034;6.984;2023-07-29T07:59:03;56135.97;;;-142.13;54.92
11712;BME280;5912;51.034;6.984;2023-07-29T08:01:37;56131.97;;;-142.13;55.97
11712;BME280;5912;51.034;6.984;2023-07-29T08:04:03;56111.94;;;-142.13;57.27
11712;BME280;5912;51.034;6.984;2023-07-29T08:06:30;56099.94;;;-142.13;57.16
11712;BME280;5912;51.034;6.984;2023-07-29T08:08:55;56131.97;;;-142.13;56.77
11712;BME280;5912;51.034;6.984;2023-07-29T08:11:21;56065.88;;;-142.13;55.49
11712;BME280;5912;51.034;6.984;2023-07-29T08:13:46;56051.84;;;-142.13;51.72
11712;BME280;5912;51.034;6.984;2023-07-29T08:16:12;56011.78;;;-142.13;47.08
11712;BME280;5912;51.034;6.984;2023-07-29T08:18:37;55919.66;;;-142.13;42.08
11712;BME280;5912;51.034;6.984;2023-07-29T08:21:03;55903.63;;;-142.13;40.21
11712;BME280;5912;51.034;6.984;2023-07-29T08:23:30;55893.63;;;-142.13;37.74
11712;BME280;5912;51.034;6.984;2023-07-29T08:25:57;55835.53;;;-142.13;35.79
11712;BME280;5912;51.034;6.984;2023-07-29T08:28:30;55799.47;;;-142.13;35.50
11712;BME280;5912;51.034;6.984;2023-07-29T08:30:56;55827.53;;;-142.13;34.77
11712;BME280;5912;51.034;6.984;2023-07-29T08:33:21;55815.50;;;-142.13;34.70
11712;BME280;5912;51.034;6.984;2023-07-29T08:35:47;55821.50;;;-142.13;35.01
11712;BME280;5912;51.034;6.984;2023-07-29T08:38:12;55851.56;;;-142.13;35.90
11712;BME280;5912;51.034;6.984;2023-07-29T08:40:42;55869.59;;;-142.13;36.64
11712;BME280;5912;51.034;6.984;2023-07-29T08:43:08;55873.59;;;-142.13;35.93
11712;BME280;5912;51.034;6.984;2023-07-29T08:45:35;55855.56;;;-142.13;35.66
11712;BME280;5912;51.034;6.984;2023-07-29T08:48:03;55859.56;;;-142.13;35.57
11712;BME280;5912;51.034;6.984;2023-07-29T08:50:29;55897.63;;;-142.13;36.83
11712;BME280;5912;51.034;6.984;2023-07-29T08:52:58;55921.66;;;-142.13;37.77
11712;BME280;5912;51.034;6.984;2023-07-29T08:55:23;55937.69;;;-142.13;38.94
11712;BME280;5912;51.034;6.984;2023-07-29T08:57:49;55971.72;;;-142.13;38.91
11712;BME280;5912;51.034;6.984;2023-07-29T09:00:14;55987.75;;;-142.13;39.91
11712;BME280;5912;51.034;6.984;2023-07-29T09:02:40;56041.84;;;-142.13;40.88
11712;BME280;5912;51.034;6.984;2023-07-29T09:05:05;56011.78;;;-142.13;41.27
11712;BME280;5912;51.034;6.984;2023-07-29T09:07:33;56047.84;;;-142.13;42.33
11712;BME280;5912;51.034;6.984;2023-07-29T09:09:59;56047.84;;;-142.13;42.31
11712;BME280;5912;51.034;6.984;2023-07-29T09:12:24;56051.84;;;-142.13;43.33
11712;BME280;5912;51.034;6.984;2023-07-29T09:14:53;56063.88;;;-142.13;43.91
11712;BME280;5912;51.034;6.984;2023-07-29T09:17:19;56073.88;;;-142.13;45.60
11712;BME280;5912;51.034;6.984;2023-07-29T09:19:50;56069.88;;;-142.13;45.06
11712;BME280;5912;51.034;6.984;2023-07-29T09:22:19;56071.88;;;-142.13;44.34
11712;BME280;5912;51.034;6.984;2023-07-29T09:24:46;56069.88;;;-142.13;45.51
11712;BME280;5912;51.034;6.984;2023-07-29T09:27:27;56055.84;;;-142.13;45.52
11712;BME280;5912;51.034;6.984;2023-07-29T09:29:53;56043.84;;;-142.13;45.21
11712;BME280;5912;51.034;6.984;2023-07-29T09:32:20;56019.81;;;-142.13;44.37
11712;BME280;5912;51.034;6.984;2023-07-29T09:34:46;56019.81;;;-142.13;43.94
11712;BME280;5912;51.034;6.984;2023-07-29T09:37:20;56025.81;;;-142.13;43.17
11712;BME280;5912;51.034;6.984;2023-07-29T09:39:47;56039.84;;;-142.13;42.47
11712;BME280;5912;51.034;6.984;2023-07-29T09:42:20;56015.81;;;-142.13;42.59
11712;BME280;5912;51.034;6.984;2023-07-29T09:44:46;56011.78;;;-142.13;42.27
11712;BME280;5912;51.034;6.984;2023-07-29T09:47:25;55995.78;;;-142.13;41.80
11712;BME280;5912;51.034;6.984;2023-07-29T09:49:51;55991.75;;;-142.13;40.96
11712;BME280;5912;51.034;6.984;2023-07-29T09:52:21;55955.72;;;-142.13;40.40
11712;BME280;5912;51.034;6.984;2023-07-29T09:54:47;55963.72;;;-142.13;40.24
11712;BME280;5912;51.034;6.984;2023-07-29T09:57:18;55983.75;;;-142.13;39.17
11712;BME280;5912;51.034;6.984;2023-07-29T09:59:57;56011.78;;;-142.13;38.74
11712;BME280;5912;51.034;6.984;2023-07-29T10:02:22;56009.78;;;-142.13;40.26
11712;BME280;5912;51.034;6.984;2023-07-29T10:04:51;56049.84;;;-142.13;41.25
11712;BME280;5912;51.034;6.984;2023-07-29T10:07:17;56025.81;;;-142.13;41.51
11712;BME280;5912;51.034;6.984;2023-07-29T10:09:45;56011.78;;;-142.13;41.25
11712;BME280;5912;51.034;6.984;2023-07-29T10:12:11;56045.84;;;-142.13;42.58
11712;BME280;5912;51.034;6.984;2023-07-29T10:14:38;56029.81;;;-142.13;40.91
11712;BME280;5912;51.034;6.984;2023-07-29T10:17:05;55991.75;;;-142.13;41.91
11712;BME280;5912;51.034;6.984;2023-07-29T10:19:31;55973.75;;;-142.13;39.17
11712;BME280;5912;51.034;6.984;2023-07-29T10:21:59;55947.69;;;-142.13;39.00
11712;BME280;5912;51.034;6.984;2023-07-29T10:24:30;55971.72;;;-142.13;39.46
11712;BME280;5912;51.034;6.984;2023-07-29T10:27:00;55955.72;;;-142.13;39.98
11712;BME280;5912;51.034;6.984;2023-07-29T10:29:31;55983.75;;;-142.13;39.93
11712;BME280;5912;51.034;6.984;2023-07-29T10:32:01;56013.78;;;-142.13;41.12
11712;BME280;5912;51.034;6.984;2023-07-29T10:34:27;56039.84;;;-142.13;42.08
11712;BME280;5912;51.034;6.984;2023-07-29T10:36:53;56055.84;;;-142.13;43.24
11712;BME280;5912;51.034;6.984;2023-07-29T10:39:19;56061.88;;;-142.13;43.93
11712;BME280;5912;51.034;6.984;2023-07-29T10:41:58;56043.84;;;-142.13;44.57
11712;BME280;5912;51.034;6.984;2023-07-29T10:44:45;56083.91;;;-142.13;46.87
11712;BME280;5912;51.034;6.984;2023-07-29T10:47:15;56067.88;;;-142.13;48.71
11712;BME280;5912;51.034;6.984;2023-07-29T10:49:46;56091.91;;;-142.13;50.43
11712;BME280;5912;51.034;6.984;2023-07-29T10:52:15;56097.94;;;-142.13;49.71
11712;BME280;5912;51.034;6.984;2023-07-29T10:54:46;56071.88;;;-142.13;49.43
11712;BME280;5912;51.034;6.984;2023-07-29T10:57:15;56067.88;;;-142.13;49.10
11712;BME280;5912;51.034;6.984;2023-07-29T10:59:41;56093.91;;;-142.13;47.81
11712;BME280;5912;51.034;6.984;2023-07-29T11:02:17;56091.91;;;-142.13;47.57
11712;BME280;5912;51.034;6.984;2023-07-29T11:04:47;56140.00;;;-142.13;49.35
11712;BME280;5912;51.034;6.984;2023-07-29T11:09:43;56103.94;;;-142.13;50.36
11712;BME280;5912;51.034;6.984;2023-07-29T11:12:51;56115.94;;;-142.13;50.13
11712;BME280;5912;51.034;6.984;2023-07-29T11:15:20;56127.97;;;-142.13;49.77
11712;BME280;5912;51.034;6.984;2023-07-29T11:17:54;56099.94;;;-142.13;48.96
11712;BME280;5912;51.034;6.984;2023-07-29T11:20:22;56051.84;;;-142.13;45.43
11712;BME280;5912;51.034;6.984;2023-07-29T11:22:48;56031.81;;;-142.13;43.49
11712;BME280;5912;51.034;6.984;2023-07-29T11:25:16;56039.84;;;-142.13;43.09
11712;BME280;5912;51.034;6.984;2023-07-29T11:27:42;56043.84;;;-142.13;44.41
11712;BME280;5912;51.034;6.984;2023-07-29T11:30:09;55999.78;;;-142.13;44.35
11712;BME280;5912;51.034;6.984;2023-07-29T11:32:36;55959.72;;;-142.13;41.99
11712;BME280;5912;51.034;6.984;2023-07-29T11:35:06;55923.66;;;-142.13;39.59
11712;BME280;5912;51.034;6.984;2023-07-29T11:37:36;55895.63;;;-142.13;37.14
11712;BME280;5912;51.034;6.984;2023-07-29T11:40:02;55889.59;;;-142.13;37.84
11712;BME280;5912;51.034;6.984;2023-07-29T11:42:28;55905.63;;;-142.13;36.75
11712;BME280;5912;51.034;6.984;2023-07-29T11:44:57;55887.59;;;-142.13;35.61
11712;BME280;5912;51.034;6.984;2023-07-29T11:47:23;55831.53;;;-142.13;36.08
11712;BME280;5912;51.034;6.984;2023-07-29T11:49:49;55855.56;;;-142.13;34.87
11712;BME280;5912;51.034;6.984;2023-07-29T11:52:14;55845.53;;;-142.13;35.13
11712;BME280;5912;51.034;6.984;2023-07-29T11:54:44;55819.50;;;-142.13;35.44
11712;BME280;5912;51.034;6.984;2023-07-29T11:57:09;55851.56;;;-142.13;35.73
11712;BME280;5912;51.034;6.984;2023-07-29T11:59:36;55859.56;;;-142.13;35.19
11712;BME280;5912;51.034;6.984;2023-07-29T12:02:08;55863.56;;;-142.13;34.79
11712;BME280;5912;51.034;6.984;2023-07-29T12:04:35;55915.66;;;-142.13;36.00
11712;BME280;5912;51.034;6.984;2023-07-29T12:07:01;55935.69;;;-142.13;38.52
11712;BME280;5912;51.034;6.984;2023-07-29T12:09:27;55955.72;;;-142.13;38.99
11712;BME280;5912;51.034;6.984;2023-07-29T12:11:54;55949.69;;;-142.13;38.73
11712;BME280;5912;51.034;6.984;2023-07-29T12:14:19;55975.75;;;-142.13;39.63
11712;BME280;5912;51.034;6.984;2023-07-29T12:16:48;55939.69;;;-142.13;38.96
11712;BME280;5912;51.034;6.984;2023-07-29T12:19:14;55927.66;;;-142.13;38.55
11712;BME280;5912;51.034;6.984;2023-07-29T12:21:41;55949.69;;;-142.13;38.55
11712;BME280;5912;51.034;6.984;2023-07-29T12:24:07;55927.66;;;-142.13;38.13
11712;BME280;5912;51.034;6.984;2023-07-29T12:26:33;55939.69;;;-142.13;38.64
11712;BME280;5912;51.034;6.984;2023-07-29T12:28:58;55959.72;;;-142.13;39.03
11712;BME280;5912;51.034;6.984;2023-07-29T12:31:33;55919.66;;;-142.13;38.97
11712;BME280;5912;51.034;6.984;2023-07-29T12:33:58;55895.63;;;-142.13;37.36
11712;BME280;5912;51.034;6.984;2023-07-29T12:36:47;55879.59;;;-142.13;36.13
11712;BME280;5912;51.034;6.984;2023-07-29T12:39:24;55851.56;;;-142.13;36.38
11712;BME280;5912;51.034;6.984;2023-07-29T12:41:51;55829.53;;;-142.13;34.97
11712;BME280;5912;51.034;6.984;2023-07-29T12:44:17;55801.47;;;-142.13;34.49
11712;BME280;5912;51.034;6.984;2023-07-29T12:46:42;55769.44;;;-142.13;33.91
11712;BME280;5912;51.034;6.984;2023-07-29T12:49:08;55755.41;;;-142.13;32.64
11712;BME280;5912;51.034;6.984;2023-07-29T12:51:33;55775.44;;;-142.13;32.48